Rodney Mitchell — WCV8372 — position and weather

sailwx.info

Track history (hours):
 
Tides and Currents Weather Stations Pressure Air Temp Water Temp Dewpoint Dewpoint Depression Visibility Wind Speed Wind Dir Waves Ship Positions

Rodney Mitchell

Owner: VINTON CROSBY INC, GOLDEN MEADOW, LA. More information available from US FCC via Universal Licensing System and Coast Guard Vessel Documentation Center.

Last reported at 2014-Oct-26 06:24 UTC. Time now 2014-Oct-26 08:37 UTC.
Position N 29°58' W 093°52'.

; draft 3 m.

Type: Towing. MMSI: 367028860.

Date/timePositionNaut miles runAvg speedWind from/ knotsBaromVisibWave heightAir tempDewpointWater temp
2014-Oct-26 06:24N 29°58' W 093°52'0 0.0
2014-Oct-26 05:05N 29°58' W 093°52'58 1.5
2014-Oct-24 14:33N 29°24' W 094°45'2 1.9
2014-Oct-24 13:33N 29°23' W 094°47'9 4.7
2014-Oct-24 11:33N 29°31' W 094°53'5 5.4
2014-Oct-24 10:33N 29°35' W 094°56'6 5.6
2014-Oct-24 09:33N 29°40' W 094°59'5 5.2
2014-Oct-24 08:33N 29°44' W 095°03'4 3.7
2014-Oct-24 07:33N 29°48' W 095°04'0 0.0
2014-Oct-24 06:33N 29°48' W 095°04'0 0.0
2014-Oct-24 05:33N 29°48' W 095°04'0 0.0
2014-Oct-24 04:33N 29°48' W 095°04'0 0.0
2014-Oct-24 03:33N 29°48' W 095°04'0 0.0
2014-Oct-24 02:33N 29°48' W 095°04'0 0.0
2014-Oct-24 01:33N 29°48' W 095°04'0 0.0
2014-Oct-24 00:33N 29°48' W 095°04'0 0.0
2014-Oct-23 23:33N 29°48' W 095°04'0 0.0
2014-Oct-23 22:33N 29°48' W 095°04'0 0.0
2014-Oct-23 21:33N 29°48' W 095°04'0 0.0
2014-Oct-23 20:03N 29°48' W 095°04'0 0.0
2014-Oct-23 17:33N 29°47' W 095°04'0 0.0
2014-Oct-23 16:20N 29°48' W 095°04'0 0.0
2014-Oct-23 13:33N 29°48' W 095°04'1 0.9
2014-Oct-23 12:27N 29°47' W 095°05'1 1.6
2014-Oct-23 11:33N 29°46' W 095°06'2 2.4
2014-Oct-23 10:33N 29°48' W 095°04'0 0.0
2014-Oct-23 09:32N 29°48' W 095°04'0 0.0
2014-Oct-23 05:24N 29°48' W 095°04'0 0.0
2014-Oct-23 03:09N 29°48' W 095°04'0 0.0
2014-Oct-23 02:28N 29°48' W 095°04'0 0.0
2014-Oct-23 01:31N 29°48' W 095°04'0 0.0
2014-Oct-23 00:09N 29°48' W 095°04'0 0.0
2014-Oct-22 23:27N 29°48' W 095°04'0 0.0
2014-Oct-22 22:30N 29°48' W 095°04'0 0.0
2014-Oct-22 21:33N 29°48' W 095°04'1 0.2
2014-Oct-22 16:11N 29°47' W 095°05'3 5.0
2014-Oct-22 15:33N 29°44' W 095°07'5 4.9
2014-Oct-22 14:28N 29°44' W 095°13'2 0.1
2014-Oct-22 00:28N 29°43' W 095°15'0 0.0
2014-Oct-21 22:31N 29°43' W 095°15'1 0.1
2014-Oct-21 14:33N 29°44' W 095°14'4 4.2
2014-Oct-21 13:33N 29°44' W 095°09'3 3.2
2014-Oct-21 12:33N 29°46' W 095°06'0 0.1
2014-Oct-21 11:33N 29°46' W 095°06'0 0.0
2014-Oct-21 10:29N 29°46' W 095°06'0 0.0
2014-Oct-21 09:26N 29°46' W 095°06'0 0.0
2014-Oct-21 08:33N 29°46' W 095°06'0 0.0
2014-Oct-21 07:31N 29°46' W 095°06'0 0.0
2014-Oct-21 06:31N 29°46' W 095°06'0 0.0
2014-Oct-21 05:29N 29°46' W 095°06'0 0.0
2014-Oct-21 04:22N 29°46' W 095°06'0 0.0
2014-Oct-21 03:31N 29°46' W 095°06'0 0.3
2014-Oct-21 02:33N 29°46' W 095°06'0 0.1
2014-Oct-20 23:09N 29°46' W 095°06'0 0.0
2014-Oct-20 21:32N 29°46' W 095°06'0 0.1
2014-Oct-20 20:31N 29°46' W 095°06'0 0.0
2014-Oct-20 19:31N 29°46' W 095°06'0 0.0
2014-Oct-20 18:17N 29°46' W 095°06'0 0.0
2014-Oct-20 17:26N 29°46' W 095°06'1 1.2
2014-Oct-20 16:33N 29°46' W 095°05'1 0.2
2014-Oct-20 13:07N 29°47' W 095°05'2 0.2
2014-Oct-20 00:33N 29°44' W 095°04'5 4.8
2014-Oct-19 23:33N 29°41' W 094°59'5 5.3
2014-Oct-19 22:33N 29°36' W 094°57'5 5.2
2014-Oct-19 21:33N 29°32' W 094°54'6 5.8
2014-Oct-19 20:32N 29°27' W 094°50'  
2014-Oct-16 23:12N 29°29' W 094°52'4 5.7
2014-Oct-16 22:33N 29°32' W 094°54'5 5.5
2014-Oct-16 21:33N 29°37' W 094°57'6 5.7
2014-Oct-16 20:33N 29°42' W 095°00'5 5.3
2014-Oct-16 19:32N 29°46' W 095°05'2 1.9
2014-Oct-16 18:32N 29°48' W 095°04'0 0.0
2014-Oct-16 16:24N 29°48' W 095°04'0 0.0
2014-Oct-16 15:33N 29°48' W 095°04'0 0.0
2014-Oct-16 14:33N 29°48' W 095°04'0 0.0
2014-Oct-16 13:33N 29°48' W 095°04'0 0.0
2014-Oct-16 12:33N 29°48' W 095°04'0 0.0
2014-Oct-16 11:33N 29°48' W 095°04'0 0.0
2014-Oct-16 10:33N 29°48' W 095°04'0 0.0
2014-Oct-16 09:33N 29°48' W 095°04'0 0.0
2014-Oct-16 08:33N 29°48' W 095°04'  
Track history (hours):
 
Tides and Currents Weather Stations Pressure Air Temp Water Temp Dewpoint Dewpoint Depression Visibility Wind Speed Wind Dir Waves Ship Positions

Rodney Mitchell

Owner: VINTON CROSBY INC, GOLDEN MEADOW, LA. More information available from US FCC via Universal Licensing System and Coast Guard Vessel Documentation Center.

Last reported at 2014-Oct-26 06:24 UTC. Time now 2014-Oct-26 08:37 UTC.
Position N 29°58' W 093°52'.

; draft 3 m.

Type: Towing. MMSI: 367028860.

Date/timePositionNaut miles runAvg speedWind from/ knotsBaromVisibWave heightAir tempDewpointWater temp
2014-Oct-26 06:24N 29°58' W 093°52'0 0.0
2014-Oct-26 05:05N 29°58' W 093°52'58 1.5
2014-Oct-24 14:33N 29°24' W 094°45'2 1.9
2014-Oct-24 13:33N 29°23' W 094°47'9 4.7
2014-Oct-24 11:33N 29°31' W 094°53'5 5.4
2014-Oct-24 10:33N 29°35' W 094°56'6 5.6
2014-Oct-24 09:33N 29°40' W 094°59'5 5.2
2014-Oct-24 08:33N 29°44' W 095°03'4 3.7
2014-Oct-24 07:33N 29°48' W 095°04'0 0.0
2014-Oct-24 06:33N 29°48' W 095°04'0 0.0
2014-Oct-24 05:33N 29°48' W 095°04'0 0.0
2014-Oct-24 04:33N 29°48' W 095°04'0 0.0
2014-Oct-24 03:33N 29°48' W 095°04'0 0.0
2014-Oct-24 02:33N 29°48' W 095°04'0 0.0
2014-Oct-24 01:33N 29°48' W 095°04'0 0.0
2014-Oct-24 00:33N 29°48' W 095°04'0 0.0
2014-Oct-23 23:33N 29°48' W 095°04'0 0.0
2014-Oct-23 22:33N 29°48' W 095°04'0 0.0
2014-Oct-23 21:33N 29°48' W 095°04'0 0.0
2014-Oct-23 20:03N 29°48' W 095°04'0 0.0
2014-Oct-23 17:33N 29°47' W 095°04'0 0.0
2014-Oct-23 16:20N 29°48' W 095°04'0 0.0
2014-Oct-23 13:33N 29°48' W 095°04'1 0.9
2014-Oct-23 12:27N 29°47' W 095°05'1 1.6
2014-Oct-23 11:33N 29°46' W 095°06'2 2.4
2014-Oct-23 10:33N 29°48' W 095°04'0 0.0
2014-Oct-23 09:32N 29°48' W 095°04'0 0.0
2014-Oct-23 05:24N 29°48' W 095°04'0 0.0
2014-Oct-23 03:09N 29°48' W 095°04'0 0.0
2014-Oct-23 02:28N 29°48' W 095°04'0 0.0
2014-Oct-23 01:31N 29°48' W 095°04'0 0.0
2014-Oct-23 00:09N 29°48' W 095°04'0 0.0
2014-Oct-22 23:27N 29°48' W 095°04'0 0.0
2014-Oct-22 22:30N 29°48' W 095°04'0 0.0
2014-Oct-22 21:33N 29°48' W 095°04'1 0.2
2014-Oct-22 16:11N 29°47' W 095°05'3 5.0
2014-Oct-22 15:33N 29°44' W 095°07'5 4.9
2014-Oct-22 14:28N 29°44' W 095°13'2 0.1
2014-Oct-22 00:28N 29°43' W 095°15'0 0.0
2014-Oct-21 22:31N 29°43' W 095°15'1 0.1
2014-Oct-21 14:33N 29°44' W 095°14'4 4.2
2014-Oct-21 13:33N 29°44' W 095°09'3 3.2
2014-Oct-21 12:33N 29°46' W 095°06'0 0.1
2014-Oct-21 11:33N 29°46' W 095°06'0 0.0
2014-Oct-21 10:29N 29°46' W 095°06'0 0.0
2014-Oct-21 09:26N 29°46' W 095°06'0 0.0
2014-Oct-21 08:33N 29°46' W 095°06'0 0.0
2014-Oct-21 07:31N 29°46' W 095°06'0 0.0
2014-Oct-21 06:31N 29°46' W 095°06'0 0.0
2014-Oct-21 05:29N 29°46' W 095°06'0 0.0
2014-Oct-21 04:22N 29°46' W 095°06'0 0.0
2014-Oct-21 03:31N 29°46' W 095°06'0 0.3
2014-Oct-21 02:33N 29°46' W 095°06'0 0.1
2014-Oct-20 23:09N 29°46' W 095°06'0 0.0
2014-Oct-20 21:32N 29°46' W 095°06'0 0.1
2014-Oct-20 20:31N 29°46' W 095°06'0 0.0
2014-Oct-20 19:31N 29°46' W 095°06'0 0.0
2014-Oct-20 18:17N 29°46' W 095°06'0 0.0
2014-Oct-20 17:26N 29°46' W 095°06'1 1.2
2014-Oct-20 16:33N 29°46' W 095°05'1 0.2
2014-Oct-20 13:07N 29°47' W 095°05'2 0.2
2014-Oct-20 00:33N 29°44' W 095°04'5 4.8
2014-Oct-19 23:33N 29°41' W 094°59'5 5.3
2014-Oct-19 22:33N 29°36' W 094°57'5 5.2
2014-Oct-19 21:33N 29°32' W 094°54'6 5.8
2014-Oct-19 20:32N 29°27' W 094°50'  
2014-Oct-16 23:12N 29°29' W 094°52'4 5.7
2014-Oct-16 22:33N 29°32' W 094°54'5 5.5
2014-Oct-16 21:33N 29°37' W 094°57'6 5.7
2014-Oct-16 20:33N 29°42' W 095°00'5 5.3
2014-Oct-16 19:32N 29°46' W 095°05'2 1.9
2014-Oct-16 18:32N 29°48' W 095°04'0 0.0
2014-Oct-16 16:24N 29°48' W 095°04'0 0.0
2014-Oct-16 15:33N 29°48' W 095°04'0 0.0
2014-Oct-16 14:33N 29°48' W 095°04'0 0.0
2014-Oct-16 13:33N 29°48' W 095°04'0 0.0
2014-Oct-16 12:33N 29°48' W 095°04'0 0.0
2014-Oct-16 11:33N 29°48' W 095°04'0 0.0
2014-Oct-16 10:33N 29°48' W 095°04'0 0.0
2014-Oct-16 09:33N 29°48' W 095°04'0 0.0
2014-Oct-16 08:33N 29°48' W 095°04'  

Dump ship's entire track history